Time;durP1;ratioP1;P1;durP2;ratioP2;P2;SDS_P1;SDS_P2;PMS_P1;PMS_P2;Temp;Humidity;BMP_temperature;BMP_pressure;BME280_temperature;BME280_humidity;BME280_pressure;Samples;Min_cycle;Max_cycle;Signal;HPM_P1;HPM_P2
2023/11/03 00:02:20;;;;;;;0.00;0.00;;;;;;;13.32;100.00;98022.81;5087380;28;20031;-65
2023/11/03 00:04:51;;;;;;;0.98;0.00;;;;;;;13.30;100.00;98017.78;5089045;28;20063;-65
2023/11/03 00:07:19;;;;;;;0.57;0.00;;;;;;;13.27;100.00;98016.41;5089790;28;20101;-66
2023/11/03 00:09:48;;;;;;;0.13;0.10;;;;;;;13.29;100.00;98024.03;5083318;28;20067;-65
2023/11/03 00:12:13;;;;;;;0.80;0.28;;;;;;;13.27;100.00;97981.63;5089531;28;20039;-66
2023/11/03 00:14:39;;;;;;;1.23;0.00;;;;;;;13.18;100.00;97968.09;5088337;28;20048;-66
2023/11/03 00:17:06;;;;;;;0.10;0.00;;;;;;;13.16;100.00;97975.34;5088743;28;20079;-66
2023/11/03 00:19:32;;;;;;;0.13;0.00;;;;;;;13.13;100.00;97996.69;5088933;28;20039;-66
2023/11/03 00:21:57;;;;;;;0.30;0.00;;;;;;;13.12;100.00;98023.03;5090699;28;20395;-66
2023/11/03 00:24:23;;;;;;;0.75;0.15;;;;;;;13.16;100.00;98045.16;5090707;28;20439;-65
2023/11/03 00:26:49;;;;;;;0.10;0.03;;;;;;;13.17;100.00;98068.47;5087074;28;20032;-66
2023/11/03 00:29:15;;;;;;;0.43;0.00;;;;;;;13.17;100.00;98086.75;5089224;28;20055;-66
2023/11/03 00:31:47;;;;;;;0.73;0.00;;;;;;;13.18;100.00;98082.34;5086373;28;20119;-66
2023/11/03 00:34:13;;;;;;;0.98;0.10;;;;;;;13.14;100.00;98060.22;5089612;28;20028;-65
2023/11/03 00:36:39;;;;;;;0.25;0.00;;;;;;;13.05;100.00;98040.63;5088691;28;20044;-65
2023/11/03 00:39:07;;;;;;;0.15;0.00;;;;;;;13.00;100.00;98038.66;5095220;28;20479;-65
2023/11/03 00:41:33;;;;;;;0.63;0.00;;;;;;;12.95;100.00;98031.47;5099550;28;20031;-66
2023/11/03 00:43:58;;;;;;;0.32;0.00;;;;;;;13.01;100.00;98029.00;5093576;28;20032;-66
2023/11/03 00:46:23;;;;;;;1.48;0.00;;;;;;;13.05;100.00;98009.25;5091125;28;20041;-65
2023/11/03 00:48:49;;;;;;;0.28;0.00;;;;;;;12.93;100.00;98001.34;5094842;28;20039;-65
2023/11/03 00:51:14;;;;;;;0.55;0.00;;;;;;;12.88;100.00;98022.09;5099355;28;20510;-65
2023/11/03 00:53:40;;;;;;;1.35;0.00;;;;;;;12.93;100.00;98027.47;5089899;28;20450;-66
2023/11/03 00:56:05;;;;;;;0.00;0.00;;;;;;;12.95;100.00;98021.00;5092447;28;20455;-66
2023/11/03 00:58:31;;;;;;;0.77;0.10;;;;;;;12.98;100.00;98024.22;5090948;28;20428;-65
2023/11/03 01:00:58;;;;;;;0.50;0.00;;;;;;;12.98;100.00;98035.47;5086394;28;20040;-65
2023/11/03 01:03:24;;;;;;;0.38;0.00;;;;;;;13.02;100.00;98030.59;5095380;28;20077;-65
2023/11/03 01:05:49;;;;;;;0.20;0.00;;;;;;;13.02;100.00;98026.16;5089951;28;20044;-65
2023/11/03 01:08:15;;;;;;;0.55;0.00;;;;;;;13.03;100.00;98006.06;5096921;28;20039;-65
2023/11/03 01:10:41;;;;;;;0.10;0.00;;;;;;;12.98;100.00;97993.66;5091702;28;20039;-66
2023/11/03 01:13:10;;;;;;;0.32;0.05;;;;;;;12.92;100.00;97992.69;5093264;28;20122;-66
2023/11/03 01:15:36;;;;;;;0.20;0.00;;;;;;;12.86;100.00;97988.34;5091686;28;20432;-66
2023/11/03 01:18:04;;;;;;;2.40;0.00;;;;;;;12.83;100.00;97980.94;5086824;28;20045;-66
2023/11/03 01:20:30;;;;;;;0.20;0.00;;;;;;;12.84;100.00;97989.59;5092643;28;21315;-65
2023/11/03 01:22:55;;;;;;;0.10;0.00;;;;;;;12.86;100.00;97998.00;5095985;28;20093;-66
2023/11/03 01:25:24;;;;;;;0.65;0.00;;;;;;;12.86;100.00;97988.34;5094677;28;20043;-66
2023/11/03 01:27:50;;;;;;;0.10;0.00;;;;;;;12.81;100.00;97987.41;5091423;28;20539;-65
2023/11/03 01:30:20;;;;;;;0.13;0.00;;;;;;;12.77;100.00;97989.66;5094271;28;20036;-66
2023/11/03 01:32:46;;;;;;;2.63;0.10;;;;;;;12.77;100.00;97981.81;5091502;28;20075;-65
2023/11/03 01:35:12;;;;;;;2.15;0.10;;;;;;;12.74;100.00;97945.69;5090190;28;20457;-65
2023/11/03 01:37:38;;;;;;;0.85;0.00;;;;;;;12.74;100.00;97914.34;5090748;28;20558;-64
2023/11/03 01:40:08;;;;;;;0.50;0.10;;;;;;;12.69;100.00;97906.38;5092999;28;20115;-66
2023/11/03 01:42:36;;;;;;;1.17;0.00;;;;;;;12.65;100.00;97881.72;5090142;28;20046;-67
2023/11/03 01:45:04;;;;;;;0.40;0.05;;;;;;;12.58;100.00;97881.78;5091506;28;20383;-66
2023/11/03 01:47:29;;;;;;;1.17;0.00;;;;;;;12.57;100.00;97869.75;5089809;28;20059;-65
2023/11/03 01:49:56;;;;;;;0.10;0.00;;;;;;;12.54;100.00;97843.25;5092989;28;20071;-65
2023/11/03 01:52:23;;;;;;;0.35;0.00;;;;;;;12.53;100.00;97786.81;5097255;28;20526;-66
2023/11/03 01:54:50;;;;;;;0.10;0.00;;;;;;;12.48;100.00;97789.31;5102017;28;20031;-66
2023/11/03 01:57:16;;;;;;;0.45;0.00;;;;;;;12.49;100.00;97796.13;5093692;28;20024;-66
2023/11/03 01:59:41;;;;;;;0.15;0.00;;;;;;;12.45;100.00;97795.75;5097653;28;20032;-66
2023/11/03 02:02:08;;;;;;;0.00;0.00;;;;;;;12.40;100.00;97748.63;5103544;28;20030;-65
2023/11/03 02:04:34;;;;;;;0.08;0.00;;;;;;;12.35;100.00;97740.66;5093038;28;20044;-65
2023/11/03 02:06:59;;;;;;;0.05;0.00;;;;;;;12.31;100.00;97729.06;5094340;28;20024;-66
2023/11/03 02:09:26;;;;;;;0.00;0.00;;;;;;;12.25;100.00;97728.16;5098643;28;20562;-66
2023/11/03 02:11:51;;;;;;;0.00;0.00;;;;;;;12.17;100.00;97730.28;5102444;28;20483;-65
2023/11/03 02:14:17;;;;;;;0.15;0.00;;;;;;;12.17;100.00;97710.19;5099129;28;20039;-65
2023/11/03 02:16:43;;;;;;;1.00;0.00;;;;;;;12.14;100.00;97676.69;5094739;28;20059;-66
2023/11/03 02:19:11;;;;;;;0.52;0.00;;;;;;;12.07;100.00;97629.03;5103931;28;20024;-66
2023/11/03 02:21:37;;;;;;;0.10;0.00;;;;;;;12.02;100.00;97581.13;5095722;28;20056;-66
2023/11/03 02:24:06;;;;;;;0.00;0.00;;;;;;;11.97;100.00;97558.31;5099168;28;20989;-67
2023/11/03 02:26:32;;;;;;;0.10;0.00;;;;;;;11.97;100.00;97610.50;5088106;28;20047;-66
2023/11/03 02:28:57;;;;;;;0.38;0.00;;;;;;;11.98;100.00;97611.28;5091323;28;20021;-66
2023/11/03 02:31:23;;;;;;;1.15;0.00;;;;;;;11.98;100.00;97612.09;5101323;28;20027;-67
2023/11/03 02:33:49;;;;;;;0.03;0.00;;;;;;;12.02;100.00;97636.72;5092296;27;20523;-65
2023/11/03 02:36:18;;;;;;;0.10;0.00;;;;;;;12.05;100.00;97649.31;5101523;28;20033;-65
2023/11/03 02:38:45;;;;;;;0.10;0.00;;;;;;;12.07;100.00;97633.44;5100461;28;20408;-65
2023/11/03 02:41:10;;;;;;;0.00;0.00;;;;;;;12.07;100.00;97618.59;5095012;28;20051;-65
2023/11/03 02:43:36;;;;;;;0.10;0.00;;;;;;;12.07;100.00;97602.13;5091367;28;20070;-66
2023/11/03 02:46:01;;;;;;;0.00;0.00;;;;;;;12.12;100.00;97613.50;5090574;28;20035;-66
2023/11/03 02:48:26;;;;;;;0.10;0.00;;;;;;;12.14;100.00;97641.97;5096590;28;20035;-65
2023/11/03 02:50:52;;;;;;;0.00;0.00;;;;;;;12.14;100.00;97681.94;5099918;28;20039;-65
2023/11/03 02:53:18;;;;;;;0.52;0.00;;;;;;;12.12;100.00;97678.75;5095786;28;20028;-65
2023/11/03 02:55:44;;;;;;;0.45;0.00;;;;;;;12.03;100.00;97667.00;5094145;28;20028;-65
2023/11/03 02:58:09;;;;;;;1.17;0.00;;;;;;;11.99;100.00;97616.28;5074963;28;20475;-66
2023/11/03 03:00:35;;;;;;;1.05;0.00;;;;;;;12.01;100.00;97608.22;5089579;28;20075;-66
2023/11/03 03:03:05;;;;;;;0.00;0.00;;;;;;;12.02;100.00;97613.22;5092012;28;20078;-65
2023/11/03 03:05:30;;;;;;;1.98;0.00;;;;;;;12.00;100.00;97636.13;5088350;28;20115;-66
2023/11/03 03:07:56;;;;;;;0.00;0.00;;;;;;;12.06;100.00;97647.50;5089452;28;20122;-66
2023/11/03 03:10:21;;;;;;;0.20;0.00;;;;;;;12.08;100.00;97663.75;5093976;28;20032;-65
2023/11/03 03:12:47;;;;;;;0.00;0.00;;;;;;;12.03;100.00;97677.44;5090988;28;20040;-66
2023/11/03 03:15:13;;;;;;;0.00;0.00;;;;;;;12.04;100.00;97705.13;5090467;28;20042;-65
2023/11/03 03:17:38;;;;;;;0.00;0.00;;;;;;;12.12;100.00;97717.88;5092719;28;20019;-65
2023/11/03 03:20:05;;;;;;;0.00;0.00;;;;;;;12.19;100.00;97707.38;5092392;28;20048;-65
2023/11/03 03:22:31;;;;;;;0.00;0.00;;;;;;;12.18;100.00;97690.09;5097105;28;20454;-65
2023/11/03 03:24:56;;;;;;;0.10;0.00;;;;;;;12.17;100.00;97697.16;5092436;28;20112;-66
2023/11/03 03:27:21;;;;;;;0.35;0.00;;;;;;;12.16;100.00;97702.59;5096070;28;20039;-65
2023/11/03 03:29:47;;;;;;;1.10;0.00;;;;;;;12.13;100.00;97701.22;5086189;28;20040;-66
2023/11/03 03:32:12;;;;;;;0.15;0.15;;;;;;;12.15;100.00;97712.22;5092873;28;20433;-66
2023/11/03 03:34:38;;;;;;;0.10;0.00;;;;;;;12.08;100.00;97706.28;5090836;28;20032;-66
2023/11/03 03:37:03;;;;;;;0.00;0.00;;;;;;;12.06;100.00;97695.28;5089637;28;20050;-66
2023/11/03 03:39:29;;;;;;;0.00;0.00;;;;;;;12.07;100.00;97686.44;5094860;28;20111;-65
2023/11/03 03:41:54;;;;;;;0.13;0.00;;;;;;;12.02;100.00;97681.06;5094474;28;20056;-66
2023/11/03 03:44:20;;;;;;;0.00;0.00;;;;;;;11.91;100.00;97666.16;5098678;28;20032;-66
2023/11/03 03:46:45;;;;;;;0.00;0.00;;;;;;;11.76;100.00;97656.09;5091555;28;20471;-66
2023/11/03 03:49:11;;;;;;;1.77;0.00;;;;;;;11.77;100.00;97641.28;5100554;28;20058;-66
2023/11/03 03:51:37;;;;;;;0.40;0.00;;;;;;;11.79;100.00;97649.69;5096702;28;20040;-65
2023/11/03 03:54:02;;;;;;;0.00;0.00;;;;;;;11.82;100.00;97625.75;5094369;28;20036;-66
2023/11/03 03:56:27;;;;;;;0.17;0.00;;;;;;;11.80;100.00;97599.91;5097406;28;20436;-66
2023/11/03 03:58:53;;;;;;;1.75;0.00;;;;;;;11.79;100.00;97613.97;5100449;28;20039;-66
2023/11/03 04:01:20;;;;;;;0.10;0.00;;;;;;;11.83;100.00;97620.31;5102255;28;20046;-65
2023/11/03 04:03:46;;;;;;;0.00;0.00;;;;;;;11.92;100.00;97644.28;5097671;28;20031;-65
2023/11/03 04:06:11;;;;;;;0.00;0.00;;;;;;;11.96;100.00;97661.88;5101469;28;20039;-65
2023/11/03 04:08:39;;;;;;;0.63;0.00;;;;;;;12.01;100.00;97648.16;5087556;28;20038;-66
2023/11/03 04:11:05;;;;;;;0.40;0.10;;;;;;;11.99;100.00;97650.22;5096435;28;20027;-66
2023/11/03 04:13:31;;;;;;;0.00;0.00;;;;;;;12.05;100.00;97633.66;5098559;28;20039;-66
2023/11/03 04:15:56;;;;;;;0.10;0.00;;;;;;;12.08;100.00;97632.44;5097651;28;20096;-66
2023/11/03 04:18:22;;;;;;;0.00;0.00;;;;;;;12.08;100.00;97609.72;5101989;28;20488;-66
2023/11/03 04:20:47;;;;;;;0.00;0.00;;;;;;;12.04;100.00;97584.31;5099387;28;20059;-66
2023/11/03 04:23:13;;;;;;;0.20;0.00;;;;;;;12.00;100.00;97577.94;5101152;28;20032;-66
2023/11/03 04:25:39;;;;;;;1.17;0.00;;;;;;;11.99;100.00;97603.25;5090829;28;20042;-66
2023/11/03 04:28:09;;;;;;;0.10;0.00;;;;;;;12.04;100.00;97600.75;5098309;28;20119;-65
2023/11/03 04:30:35;;;;;;;0.00;0.00;;;;;;;12.05;100.00;97581.47;5096710;28;20103;-65
2023/11/03 04:33:03;;;;;;;0.10;0.00;;;;;;;12.04;100.00;97572.06;5091718;28;20032;-66
2023/11/03 04:35:29;;;;;;;0.20;0.00;;;;;;;11.95;100.00;97557.72;5090625;28;20055;-66
2023/11/03 04:37:54;;;;;;;1.27;0.00;;;;;;;11.93;100.00;97557.97;5088103;28;20071;-65
2023/11/03 04:40:21;;;;;;;0.00;0.00;;;;;;;11.98;100.00;97570.34;5097495;28;20039;-65
2023/11/03 04:42:49;;;;;;;0.00;0.00;;;;;;;11.99;100.00;97550.25;5093997;28;20028;-66
2023/11/03 04:45:18;;;;;;;0.00;0.00;;;;;;;11.97;100.00;97537.44;5102089;28;20491;-66
2023/11/03 04:47:43;;;;;;;0.10;0.00;;;;;;;11.94;100.00;97550.94;5092445;28;20032;-65
2023/11/03 04:50:11;;;;;;;0.10;0.00;;;;;;;11.94;100.00;97574.41;5095881;28;20062;-66
2023/11/03 04:52:39;;;;;;;0.10;0.00;;;;;;;11.99;100.00;97563.31;5093090;28;20031;-66
2023/11/03 04:55:06;;;;;;;0.08;0.00;;;;;;;11.99;100.00;97558.88;5100180;28;20059;-66
2023/11/03 04:57:32;;;;;;;0.10;0.00;;;;;;;12.02;100.00;97555.81;5091111;28;20032;-66
2023/11/03 04:59:58;;;;;;;0.10;0.00;;;;;;;12.04;100.00;97569.44;5096433;28;20137;-66
2023/11/03 05:02:23;;;;;;;0.10;0.00;;;;;;;12.03;100.00;97591.34;5101987;28;20487;-66
2023/11/03 05:04:49;;;;;;;0.10;0.00;;;;;;;12.02;100.00;97597.56;5096099;28;20118;-66
2023/11/03 05:07:14;;;;;;;0.00;0.00;;;;;;;12.03;100.00;97591.34;5094421;28;20158;-66
2023/11/03 05:09:41;;;;;;;0.00;0.00;;;;;;;12.02;100.00;97589.75;5092382;28;20035;-66
2023/11/03 05:12:06;;;;;;;0.00;0.00;;;;;;;11.98;100.00;97590.41;5098542;28;20123;-67
2023/11/03 05:14:32;;;;;;;0.10;0.00;;;;;;;11.95;100.00;97602.09;5097035;27;20127;-66
2023/11/03 05:16:57;;;;;;;0.05;0.00;;;;;;;11.98;100.00;97595.63;5096584;28;20032;-66
2023/11/03 05:19:24;;;;;;;0.57;0.00;;;;;;;11.96;100.00;97599.25;5098271;28;20527;-67
2023/11/03 05:21:50;;;;;;;1.00;0.00;;;;;;;12.01;100.00;97605.63;5094586;28;20047;-66
2023/11/03 05:24:15;;;;;;;0.00;0.00;;;;;;;12.00;100.00;97596.22;5097564;28;20383;-66
2023/11/03 05:26:44;;;;;;;0.10;0.00;;;;;;;11.98;100.00;97580.78;5090357;28;20032;-67
2023/11/03 05:29:10;;;;;;;0.10;0.00;;;;;;;11.99;100.00;97586.78;5093896;28;20522;-68
2023/11/03 05:31:35;;;;;;;0.03;0.00;;;;;;;11.99;100.00;97579.75;5093677;27;20041;-68
2023/11/03 05:34:02;;;;;;;0.13;0.00;;;;;;;12.03;100.00;97577.50;5096299;28;20473;-67
2023/11/03 05:36:28;;;;;;;0.10;0.00;;;;;;;12.05;100.00;97573.66;5100253;28;20413;-67
2023/11/03 05:38:54;;;;;;;1.85;0.00;;;;;;;12.07;100.00;97581.25;5096888;28;20356;-68
2023/11/03 05:41:20;;;;;;;1.20;0.00;;;;;;;12.06;100.00;97583.06;5092129;28;20043;-67
2023/11/03 05:43:45;;;;;;;1.30;0.00;;;;;;;12.06;100.00;97572.63;5091264;28;20028;-67
2023/11/03 05:46:11;;;;;;;0.00;0.00;;;;;;;12.08;100.00;97564.56;5092279;28;20024;-68
2023/11/03 05:48:36;;;;;;;0.10;0.00;;;;;;;12.08;100.00;97546.31;5091397;28;20055;-67
2023/11/03 05:51:03;;;;;;;0.00;0.00;;;;;;;12.07;100.00;97537.69;5093060;28;20518;-67
2023/11/03 05:53:29;;;;;;;0.10;0.00;;;;;;;12.07;100.00;97535.06;5092400;28;20040;-68
2023/11/03 05:55:54;;;;;;;0.00;0.00;;;;;;;12.05;100.00;97544.16;5095764;28;20275;-68
2023/11/03 05:58:19;;;;;;;1.27;0.00;;;;;;;12.04;100.00;97548.56;5096042;28;20040;-68
2023/11/03 06:00:45;;;;;;;0.10;0.00;;;;;;;12.05;100.00;97547.56;5099342;28;20495;-67
2023/11/03 06:03:10;;;;;;;0.10;0.00;;;;;;;12.05;100.00;97560.59;5093007;28;20043;-68
2023/11/03 06:05:36;;;;;;;0.00;0.00;;;;;;;12.05;100.00;97552.78;5090078;28;20121;-68
2023/11/03 06:08:01;;;;;;;0.30;0.00;;;;;;;12.03;100.00;97554.81;5093227;28;20031;-68
2023/11/03 06:10:27;;;;;;;0.05;0.00;;;;;;;12.06;100.00;97537.91;5106801;28;20027;-68
2023/11/03 06:12:52;;;;;;;0.15;0.00;;;;;;;12.06;100.00;97551.75;5099058;28;20024;-68
2023/11/03 06:15:18;;;;;;;0.00;0.00;;;;;;;12.12;100.00;97581.38;5102404;28;20028;-68
2023/11/03 06:17:43;;;;;;;0.20;0.00;;;;;;;12.13;100.00;97588.19;5096530;28;20043;-68
2023/11/03 06:20:09;;;;;;;0.00;0.00;;;;;;;12.14;100.00;97584.56;5100772;28;20490;-69
2023/11/03 06:22:34;;;;;;;0.30;0.00;;;;;;;12.16;100.00;97572.88;5095787;28;20036;-68
2023/11/03 06:25:00;;;;;;;2.13;0.00;;;;;;;12.20;100.00;97573.22;5100415;28;20038;-68
2023/11/03 06:27:25;;;;;;;0.03;0.00;;;;;;;12.23;100.00;97568.34;5092486;28;20504;-69
2023/11/03 06:29:51;;;;;;;0.13;0.00;;;;;;;12.25;100.00;97563.69;5092287;28;20085;-69
2023/11/03 06:32:16;;;;;;;0.00;0.00;;;;;;;12.22;100.00;97551.09;5091370;28;20017;-69
2023/11/03 06:34:42;;;;;;;0.80;0.00;;;;;;;12.23;100.00;97564.94;5093055;28;20019;-69
2023/11/03 06:37:08;;;;;;;0.10;0.00;;;;;;;12.23;100.00;97563.13;5089783;28;20514;-70
2023/11/03 06:39:33;;;;;;;0.20;0.00;;;;;;;12.24;100.00;97572.56;5092492;28;20032;-69
2023/11/03 06:41:59;;;;;;;0.20;0.00;;;;;;;12.27;100.00;97569.50;5090506;28;20028;-69
2023/11/03 06:44:24;;;;;;;0.68;0.00;;;;;;;12.28;100.00;97565.06;5092588;28;20032;-66
2023/11/03 06:46:50;;;;;;;0.10;0.00;;;;;;;12.28;100.00;97570.28;5090580;28;20434;-68
2023/11/03 06:49:15;;;;;;;0.40;0.00;;;;;;;12.28;100.00;97560.66;5093420;28;20028;-67
2023/11/03 06:51:44;;;;;;;0.13;0.10;;;;;;;12.30;100.00;97561.19;5093217;28;20050;-67
2023/11/03 06:54:09;;;;;;;0.25;0.00;;;;;;;12.36;100.00;97584.81;5085968;28;20127;-67
2023/11/03 06:56:36;;;;;;;0.85;0.10;;;;;;;12.41;100.00;97587.53;5090136;28;20118;-67
2023/11/03 06:59:02;;;;;;;0.68;0.00;;;;;;;12.42;100.00;97589.13;5088883;28;20054;-70
2023/11/03 07:01:27;;;;;;;0.13;0.00;;;;;;;12.43;100.00;97593.31;5090321;28;20471;-72
2023/11/03 07:03:53;;;;;;;0.55;0.10;;;;;;;12.44;100.00;97595.72;5091724;28;20036;-68
2023/11/03 07:06:20;;;;;;;0.30;0.00;;;;;;;12.45;100.00;97597.31;5090314;28;20104;-68
2023/11/03 07:08:46;;;;;;;0.00;0.00;;;;;;;12.47;100.00;97592.66;5091027;28;20479;-68
2023/11/03 07:11:12;;;;;;;0.88;0.00;;;;;;;12.51;100.00;97582.56;5089470;28;20031;-67
2023/11/03 07:13:37;;;;;;;0.93;0.00;;;;;;;12.55;100.00;97579.25;5089206;28;20498;-67
2023/11/03 07:16:06;;;;;;;0.22;0.00;;;;;;;12.63;100.00;97588.59;5090741;28;20028;-67
2023/11/03 07:18:32;;;;;;;1.13;0.00;;;;;;;12.71;100.00;97595.28;5090007;28;20032;-67
2023/11/03 07:20:58;;;;;;;3.35;0.00;;;;;;;12.75;100.00;97599.84;5087716;28;20044;-67
2023/11/03 07:23:23;;;;;;;0.88;0.00;;;;;;;12.81;100.00;97585.84;5085565;28;20042;-67
2023/11/03 07:25:51;;;;;;;0.20;0.00;;;;;;;12.87;100.00;97586.75;5081347;28;20375;-63
2023/11/03 07:28:20;;;;;;;0.50;0.00;;;;;;;12.90;100.00;97594.91;5084601;28;20032;-64
2023/11/03 07:30:46;;;;;;;1.08;0.63;;;;;;;12.93;100.00;97597.06;5081111;28;20063;-64
2023/11/03 07:33:11;;;;;;;2.80;0.10;;;;;;;12.98;100.00;97598.22;5070546;28;20028;-64
2023/11/03 07:35:37;;;;;;;2.20;0.10;;;;;;;12.99;100.00;97597.19;5083951;28;20047;-65
2023/11/03 07:38:05;;;;;;;3.88;0.10;;;;;;;13.00;100.00;97615.25;5084393;28;20086;-65
2023/11/03 07:40:31;;;;;;;1.10;0.00;;;;;;;13.00;100.00;97615.25;5087360;28;20887;-64
2023/11/03 07:42:56;;;;;;;0.90;0.00;;;;;;;12.99;100.00;97621.50;5092840;28;20463;-64
2023/11/03 07:45:23;;;;;;;0.60;0.10;;;;;;;12.96;100.00;97632.41;5088618;28;20038;-65
2023/11/03 07:47:49;;;;;;;0.05;0.00;;;;;;;12.90;100.00;97633.31;5087064;28;20077;-65
2023/11/03 07:50:16;;;;;;;2.72;0.10;;;;;;;12.86;100.00;97638.19;5082863;28;20125;-64
2023/11/03 07:52:43;;;;;;;1.35;0.00;;;;;;;12.74;100.00;97626.97;5089142;28;20391;-67
2023/11/03 07:55:15;;;;;;;1.95;0.03;;;;;;;12.67;100.00;97625.50;5089012;28;20024;-69
2023/11/03 07:57:41;;;;;;;1.65;0.22;;;;;;;12.60;100.00;97630.81;5084707;28;20020;-67
2023/11/03 08:00:10;;;;;;;3.47;0.20;;;;;;;12.52;100.00;97644.22;5088842;28;20467;-67
2023/11/03 08:02:37;;;;;;;2.25;0.10;;;;;;;12.47;100.00;97646.69;5081096;28;20110;-68
2023/11/03 08:05:04;;;;;;;0.68;0.00;;;;;;;12.44;100.00;97641.91;5089368;28;20464;-67
2023/11/03 08:07:29;;;;;;;0.88;0.00;;;;;;;12.38;100.00;97658.47;5084434;28;20032;-68
2023/11/03 08:09:55;;;;;;;0.50;0.00;;;;;;;12.39;100.00;97660.06;5088607;28;20495;-70
2023/11/03 08:12:20;;;;;;;1.27;0.00;;;;;;;12.39;100.00;97665.28;5091230;28;20035;-69
2023/11/03 08:14:46;;;;;;;1.88;0.00;;;;;;;12.36;100.00;97676.19;5085296;28;20116;-68
2023/11/03 08:17:11;;;;;;;1.15;0.10;;;;;;;12.29;100.00;97682.28;5090275;28;20430;-68
2023/11/03 08:19:41;;;;;;;5.18;0.10;;;;;;;12.28;100.00;97688.56;5085878;28;20501;-68
2023/11/03 08:22:07;;;;;;;2.67;0.03;;;;;;;12.29;100.00;97682.28;5092460;28;20564;-68
2023/11/03 08:24:33;;;;;;;2.72;0.10;;;;;;;12.24;100.00;97684.81;5088445;28;20122;-68
2023/11/03 08:26:59;;;;;;;1.65;0.00;;;;;;;12.19;100.00;97707.38;5086044;28;20046;-68
2023/11/03 08:29:24;;;;;;;1.35;0.00;;;;;;;12.13;100.00;97716.06;5084377;28;20508;-69
2023/11/03 08:31:50;;;;;;;1.70;0.00;;;;;;;12.12;100.00;97724.91;5081152;28;20032;-68
2023/11/03 08:34:16;;;;;;;1.08;0.00;;;;;;;12.07;100.00;97733.41;5083581;28;20479;-68
2023/11/03 08:36:41;;;;;;;3.00;0.10;;;;;;;12.05;100.00;97743.28;5081498;28;20047;-68
2023/11/03 08:39:07;;;;;;;1.95;0.05;;;;;;;12.08;100.00;97739.41;5094360;28;20041;-68
2023/11/03 08:41:33;;;;;;;1.05;0.00;;;;;;;12.07;100.00;97756.91;5085689;28;20032;-69
2023/11/03 08:43:58;;;;;;;3.42;0.20;;;;;;;12.19;100.00;97756.97;5090601;28;20032;-70
2023/11/03 08:46:24;;;;;;;3.10;0.10;;;;;;;12.22;100.00;97759.13;5088799;28;20420;-69
2023/11/03 08:48:49;;;;;;;0.93;0.08;;;;;;;12.24;100.00;97764.94;5080532;28;20070;-69
2023/11/03 08:51:16;;;;;;;1.10;0.00;;;;;;;12.32;100.00;97759.38;5085309;28;20028;-68
2023/11/03 08:53:43;;;;;;;1.52;0.10;;;;;;;12.32;100.00;97754.16;5084751;28;20104;-68
2023/11/03 08:56:08;;;;;;;0.55;0.00;;;;;;;12.30;100.00;97771.84;5088131;28;20032;-69
2023/11/03 08:58:34;;;;;;;2.80;0.10;;;;;;;12.35;100.00;97781.63;5082918;28;20317;-69
2023/11/03 09:01:00;;;;;;;3.90;0.20;;;;;;;12.41;100.00;97778.16;5079931;28;20525;-69
2023/11/03 09:03:27;;;;;;;0.40;0.10;;;;;;;12.29;100.00;97786.72;5079231;28;20063;-68
2023/11/03 09:05:53;;;;;;;2.55;0.08;;;;;;;12.25;100.00;97801.25;5079924;28;20062;-68
2023/11/03 09:08:19;;;;;;;2.25;0.13;;;;;;;12.28;100.00;97800.03;5079066;28;20036;-69
2023/11/03 09:10:44;;;;;;;1.15;0.20;;;;;;;12.33;100.00;97809.78;5079333;28;20047;-68
2023/11/03 09:13:10;;;;;;;5.63;0.20;;;;;;;12.35;100.00;97794.69;5081265;28;20028;-69
2023/11/03 09:15:35;;;;;;;6.15;0.40;;;;;;;12.40;100.00;97813.91;5080565;28;20028;-69
2023/11/03 09:18:05;;;;;;;3.65;0.28;;;;;;;12.28;100.00;97807.84;5080137;28;20024;-68
2023/11/03 09:20:31;;;;;;;3.22;0.28;;;;;;;12.34;100.00;97808.75;5080092;28;20059;-68
2023/11/03 09:22:56;;;;;;;2.28;0.50;;;;;;;12.40;100.00;97813.09;5078843;28;20028;-68
2023/11/03 09:25:22;;;;;;;4.05;0.13;;;;;;;12.45;100.00;97805.41;5080471;28;20051;-69
2023/11/03 09:27:48;;;;;;;2.95;0.28;;;;;;;12.41;100.00;97802.44;5081517;28;20036;-68
2023/11/03 09:30:15;;;;;;;0.52;0.10;;;;;;;12.38;100.00;97809.91;5081153;28;20499;-69
2023/11/03 09:32:41;;;;;;;3.35;0.20;;;;;;;12.38;100.00;97809.91;5081188;28;20118;-68
2023/11/03 09:35:07;;;;;;;1.95;0.20;;;;;;;12.28;100.00;97811.25;5080564;28;20822;-68
2023/11/03 09:37:34;;;;;;;4.10;0.08;;;;;;;12.24;100.00;97804.09;5084027;28;20039;-68
2023/11/03 09:40:01;;;;;;;3.22;0.10;;;;;;;12.28;100.00;97808.66;5081025;28;20024;-69
2023/11/03 09:42:27;;;;;;;1.70;0.10;;;;;;;12.24;100.00;97804.88;5083635;28;20584;-70
2023/11/03 09:44:53;;;;;;;4.72;0.10;;;;;;;12.28;100.00;97816.47;5084097;28;20043;-70
2023/11/03 09:47:18;;;;;;;0.50;0.10;;;;;;;12.22;100.00;97822.56;5098460;28;20105;-70
2023/11/03 09:49:45;;;;;;;5.00;0.10;;;;;;;12.19;100.00;97807.34;5089007;28;20036;-70
2023/11/03 09:52:13;;;;;;;2.85;0.10;;;;;;;12.21;100.00;97825.41;5082507;28;20395;-70
2023/11/03 09:54:41;;;;;;;1.83;0.20;;;;;;;12.27;100.00;97814.88;5081626;28;20116;-71
2023/11/03 09:57:10;;;;;;;1.38;0.00;;;;;;;12.25;100.00;97816.13;5080801;28;20039;-70
2023/11/03 09:59:38;;;;;;;1.92;0.32;;;;;;;12.24;100.00;97820.53;5082477;28;20043;-70
2023/11/03 10:02:11;;;;;;;3.00;0.20;;;;;;;12.21;100.00;97815.75;5082246;28;20032;-70
2023/11/03 10:04:40;;;;;;;2.97;0.20;;;;;;;12.17;100.00;97809.38;5082357;28;20079;-71
2023/11/03 10:07:06;;;;;;;0.43;0.00;;;;;;;12.17;100.00;97806.75;5082885;28;20040;-71
2023/11/03 10:09:32;;;;;;;2.63;0.08;;;;;;;12.15;100.00;97803.56;5092414;28;20391;-70
2023/11/03 10:11:59;;;;;;;3.92;0.30;;;;;;;12.15;100.00;97811.41;5091666;28;20518;-70
2023/11/03 10:14:25;;;;;;;3.20;0.20;;;;;;;12.16;100.00;97802.56;5083359;28;20450;-71
2023/11/03 10:16:51;;;;;;;3.65;0.52;;;;;;;12.17;100.00;97806.75;5091614;28;20031;-71
2023/11/03 10:19:19;;;;;;;3.05;0.13;;;;;;;12.16;100.00;97801.75;5083339;28;20383;-71
2023/11/03 10:21:46;;;;;;;4.30;0.10;;;;;;;12.12;100.00;97790.97;5082162;28;20414;-70
2023/11/03 10:24:15;;;;;;;3.60;0.63;;;;;;;12.06;100.00;97807.50;5086114;28;20024;-68
2023/11/03 10:26:40;;;;;;;0.60;0.10;;;;;;;12.01;100.00;97823.00;5082800;28;20466;-67
2023/11/03 10:29:05;;;;;;;6.22;0.10;;;;;;;11.73;100.00;97809.63;5086036;28;20059;-65
2023/11/03 10:31:31;;;;;;;2.63;0.10;;;;;;;11.53;100.00;97802.78;5087858;28;20024;-66
2023/11/03 10:33:57;;;;;;;1.63;0.20;;;;;;;11.49;100.00;97801.63;5084281;28;20032;-66
2023/11/03 10:36:23;;;;;;;2.72;0.32;;;;;;;11.42;100.00;97798.28;5081899;28;20035;-66
2023/11/03 10:38:49;;;;;;;0.57;0.00;;;;;;;11.37;100.00;97808.53;5087516;28;20028;-67
2023/11/03 10:41:16;;;;;;;17.30;3.75;;;;;;;11.28;100.00;97820.28;5082099;28;20039;-66
2023/11/03 10:43:47;;;;;;;14.05;0.73;;;;;;;11.18;100.00;97812.94;5093724;28;20119;-65
2023/11/03 10:46:49;;;;;;;4.53;0.75;;;;;;;11.04;100.00;97802.81;5100581;28;20054;-66
2023/11/03 10:49:32;;;;;;;9.85;1.27;;;;;;;10.98;100.00;97797.44;5073626;28;20048;-66
2023/11/03 10:52:13;;;;;;;5.28;0.80;;;;;;;11.06;100.00;97792.97;5082468;28;20950;-65
2023/11/03 10:54:47;;;;;;;5.85;0.60;;;;;;;11.22;100.00;97790.66;5090829;28;20118;-66
2023/11/03 10:57:16;;;;;;;5.07;0.55;;;;;;;11.39;100.00;97779.66;5085469;28;20063;-65
2023/11/03 10:59:45;;;;;;;5.43;0.50;;;;;;;11.44;100.00;97778.00;5086164;28;20043;-66
2023/11/03 11:02:18;;;;;;;4.50;0.30;;;;;;;11.53;100.00;97776.72;5088414;28;20032;-66
2023/11/03 11:05:17;;;;;;;2.63;0.25;;;;;;;11.73;100.00;97781.75;5079331;28;20028;-66
2023/11/03 11:07:50;;;;;;;6.03;0.55;;;;;;;11.87;100.00;97788.41;5068158;28;20043;-66
2023/11/03 11:10:19;;;;;;;3.50;0.32;;;;;;;11.86;100.00;97781.59;5091682;28;20032;-66
2023/11/03 11:12:49;;;;;;;6.32;0.38;;;;;;;11.71;100.00;97777.75;5089600;28;20038;-67
2023/11/03 11:15:21;;;;;;;1.02;0.10;;;;;;;11.64;100.00;97783.03;5091965;28;20020;-67
2023/11/03 11:17:46;;;;;;;5.85;0.15;;;;;;;11.73;100.00;97778.34;5089280;28;20039;-67
2023/11/03 11:20:20;;;;;;;5.97;0.20;;;;;;;11.71;100.00;97765.50;5096115;28;20048;-67
2023/11/03 11:22:47;;;;;;;4.90;0.20;;;;;;;11.90;100.00;97774.16;5088817;28;20032;-67